Time;durP1;ratioP1;P1;durP2;ratioP2;P2;SDS_P1;SDS_P2;PMS_P1;PMS_P2;Temp;Humidity;BMP_temperature;BMP_pressure;BME280_temperature;BME280_humidity;BME280_pressure;Samples;Min_cycle;Max_cycle;Signal;HPM_P1;HPM_P2
2022/04/11 00:01:01;;;;;;;9.23;3.35;;;5.40;99.90;;;;;;5026671;28;20048;-65
2022/04/11 00:03:28;;;;;;;7.30;3.22;;;5.40;99.90;;;;;;5022928;28;20661;-65
2022/04/11 00:05:54;;;;;;;8.90;3.45;;;5.40;99.90;;;;;;5019658;28;20550;-65
2022/04/11 00:08:20;;;;;;;9.00;3.13;;;5.30;99.90;;;;;;5030405;28;20037;-65
2022/04/11 00:10:46;;;;;;;5.25;3.05;;;5.30;99.90;;;;;;5028779;28;20161;-65
2022/04/11 00:13:11;;;;;;;5.45;3.00;;;5.30;99.90;;;;;;5030867;28;20073;-65
2022/04/11 00:15:40;;;;;;;9.02;3.75;;;5.30;99.90;;;;;;5016809;28;20061;-65
2022/04/11 00:18:06;;;;;;;5.22;2.58;;;5.30;99.90;;;;;;5027155;28;20512;-65
2022/04/11 00:20:32;;;;;;;6.18;2.90;;;5.30;99.90;;;;;;5029964;28;20044;-65
2022/04/11 00:22:58;;;;;;;10.27;3.28;;;5.20;99.90;;;;;;5025824;28;20042;-66
2022/04/11 00:25:24;;;;;;;6.00;2.40;;;5.20;99.90;;;;;;5019414;28;20393;-65
2022/04/11 00:27:52;;;;;;;6.63;3.00;;;5.20;99.90;;;;;;5027949;28;20081;-65
2022/04/11 00:30:17;;;;;;;6.45;3.08;;;5.30;99.90;;;;;;5029546;28;20064;-65
2022/04/11 00:32:46;;;;;;;4.03;2.38;;;5.30;99.90;;;;;;5022280;28;20477;-65
2022/04/11 00:35:12;;;;;;;6.32;3.00;;;5.20;99.90;;;;;;5017299;28;20049;-65
2022/04/11 00:37:37;;;;;;;7.40;2.90;;;5.20;99.90;;;;;;5024721;28;20050;-65
2022/04/11 00:40:07;;;;;;;9.10;3.47;;;5.20;99.90;;;;;;5029957;28;20506;-65
2022/04/11 00:42:33;;;;;;;8.45;3.90;;;5.20;99.90;;;;;;5028885;28;20045;-65
2022/04/11 00:44:59;;;;;;;7.40;3.55;;;5.20;99.90;;;;;;5019793;28;20052;-65
2022/04/11 00:47:26;;;;;;;8.45;3.65;;;5.10;99.90;;;;;;5029611;28;20448;-65
2022/04/11 00:49:56;;;;;;;6.38;3.65;;;5.10;99.90;;;;;;5020421;28;20063;-65
2022/04/11 00:52:21;;;;;;;8.55;3.17;;;5.00;99.90;;;;;;5025673;28;20065;-65
2022/04/11 00:54:47;;;;;;;10.52;3.35;;;5.10;99.90;;;;;;5024795;28;20062;-65
2022/04/11 00:57:15;;;;;;;5.85;3.05;;;5.00;99.90;;;;;;5020404;28;20029;-66
2022/04/11 00:59:41;;;;;;;5.75;2.78;;;5.00;99.90;;;;;;5013985;28;20056;-65
2022/04/11 01:02:07;;;;;;;7.15;3.53;;;4.90;99.90;;;;;;5026231;28;20500;-65
2022/04/11 01:04:34;;;;;;;5.80;3.17;;;4.80;99.90;;;;;;5017610;28;20072;-65
2022/04/11 01:06:59;;;;;;;10.35;3.72;;;4.90;99.90;;;;;;5013861;28;20061;-65
2022/04/11 01:09:26;;;;;;;8.70;3.83;;;4.90;99.90;;;;;;5025959;28;20038;-65
2022/04/11 01:11:52;;;;;;;5.35;2.88;;;4.90;99.90;;;;;;5014796;28;20060;-65
2022/04/11 01:14:19;;;;;;;10.23;3.45;;;4.90;99.90;;;;;;5027225;28;20470;-65
2022/04/11 01:16:51;;;;;;;6.82;3.05;;;4.80;99.90;;;;;;5024236;28;20042;-65
2022/04/11 01:19:18;;;;;;;5.60;2.93;;;4.90;99.90;;;;;;5017178;28;20041;-65
2022/04/11 01:21:47;;;;;;;6.32;2.85;;;4.80;99.90;;;;;;5023868;28;20508;-65
2022/04/11 01:24:13;;;;;;;7.07;3.53;;;4.80;99.90;;;;;;5018363;28;22588;-65
2022/04/11 01:26:39;;;;;;;5.45;3.03;;;4.80;99.90;;;;;;5022714;28;20160;-65
2022/04/11 01:29:08;;;;;;;13.40;3.30;;;4.80;99.90;;;;;;5027526;28;20033;-65
2022/04/11 01:31:34;;;;;;;6.38;2.95;;;4.80;99.90;;;;;;5025024;28;20059;-65
2022/04/11 01:33:59;;;;;;;6.78;2.95;;;4.80;99.90;;;;;;5020739;28;20140;-65
2022/04/11 01:36:25;;;;;;;6.05;3.45;;;4.80;99.90;;;;;;5020670;28;20037;-65
2022/04/11 01:38:50;;;;;;;5.28;2.78;;;4.80;99.90;;;;;;5028055;28;20090;-65
2022/04/11 01:41:16;;;;;;;8.77;3.05;;;4.70;99.90;;;;;;5026453;28;20049;-65
2022/04/11 01:43:42;;;;;;;6.65;3.72;;;4.70;99.90;;;;;;5027253;28;20504;-65
2022/04/11 01:46:07;;;;;;;4.82;3.22;;;4.70;99.90;;;;;;5027166;28;20041;-65
2022/04/11 01:48:33;;;;;;;5.18;2.83;;;4.70;99.90;;;;;;5028619;28;20042;-65
2022/04/11 01:50:58;;;;;;;4.75;2.83;;;4.80;99.90;;;;;;5024128;28;20135;-65
2022/04/11 01:53:24;;;;;;;3.55;2.70;;;4.80;99.90;;;;;;5017355;28;20139;-65
2022/04/11 01:55:49;;;;;;;4.47;3.08;;;4.80;99.90;;;;;;5029639;28;20187;-65
2022/04/11 01:58:15;;;;;;;6.75;2.85;;;4.80;99.90;;;;;;5026523;28;20132;-65
2022/04/11 02:00:41;;;;;;;4.93;3.28;;;4.80;99.90;;;;;;5019777;28;20038;-65
2022/04/11 02:03:08;;;;;;;6.28;3.75;;;4.90;99.90;;;;;;5013942;28;20486;-65
2022/04/11 02:05:34;;;;;;;5.03;3.17;;;4.80;99.90;;;;;;5026846;28;20041;-65
2022/04/11 02:08:00;;;;;;;4.70;2.80;;;4.90;99.90;;;;;;5019319;28;20126;-65
2022/04/11 02:10:27;;;;;;;4.45;3.50;;;4.90;99.90;;;;;;5027597;28;20092;-65
2022/04/11 02:12:53;;;;;;;6.63;2.97;;;4.90;99.90;;;;;;5020677;28;20053;-65
2022/04/11 02:15:19;;;;;;;6.28;2.58;;;4.90;99.90;;;;;;5026202;28;20045;-65
2022/04/11 02:17:48;;;;;;;7.68;3.03;;;4.90;99.90;;;;;;5029199;28;20046;-65
2022/04/11 02:20:14;;;;;;;4.88;2.58;;;4.80;99.90;;;;;;5026281;28;20033;-65
2022/04/11 02:22:53;;;;;;;9.82;2.95;;;4.90;99.90;;;;;;5025650;28;20061;-65
2022/04/11 02:25:22;;;;;;;4.35;2.85;;;4.90;99.90;;;;;;5019231;28;20061;-65
2022/04/11 02:27:48;;;;;;;6.15;2.88;;;4.90;99.90;;;;;;5031230;28;20208;-65
2022/04/11 02:30:15;;;;;;;9.50;3.58;;;4.90;99.90;;;;;;5031131;28;20413;-65
2022/04/11 02:32:41;;;;;;;4.47;2.67;;;4.90;99.90;;;;;;5026948;28;20064;-65
2022/04/11 02:35:07;;;;;;;7.43;3.55;;;4.90;99.90;;;;;;5025968;28;20064;-65
2022/04/11 02:37:33;;;;;;;4.45;3.17;;;4.80;99.90;;;;;;5030493;28;20045;-65
2022/04/11 02:40:00;;;;;;;5.78;3.42;;;4.90;99.90;;;;;;5032387;28;20037;-65
2022/04/11 02:42:27;;;;;;;7.53;2.72;;;4.80;99.90;;;;;;5026779;28;20115;-66
2022/04/11 02:44:53;;;;;;;7.70;3.50;;;4.80;99.90;;;;;;5026601;28;20041;-65
2022/04/11 02:47:20;;;;;;;12.25;2.90;;;4.80;99.90;;;;;;5024348;28;20417;-65
2022/04/11 02:49:46;;;;;;;5.93;3.38;;;4.90;99.90;;;;;;5030379;28;20049;-65
2022/04/11 02:52:11;;;;;;;9.13;3.55;;;4.80;99.90;;;;;;5030701;28;20124;-65
2022/04/11 02:54:38;;;;;;;7.53;3.53;;;4.80;99.90;;;;;;5024547;28;20037;-65
2022/04/11 02:57:05;;;;;;;7.55;3.70;;;4.80;99.90;;;;;;5031210;28;20049;-65
2022/04/11 02:59:32;;;;;;;5.60;3.17;;;4.80;99.90;;;;;;5031696;28;20544;-65
2022/04/11 03:01:58;;;;;;;6.55;3.95;;;4.80;99.90;;;;;;5012764;28;20509;-65
2022/04/11 03:04:23;;;;;;;5.72;3.30;;;4.80;99.90;;;;;;5028770;28;20048;-65
2022/04/11 03:06:49;;;;;;;7.63;3.55;;;4.80;99.90;;;;;;5033326;28;20045;-65
2022/04/11 03:09:14;;;;;;;5.63;2.53;;;4.80;99.90;;;;;;5022614;28;20358;-65
2022/04/11 03:11:40;;;;;;;8.95;4.10;;;4.80;99.90;;;;;;5030092;28;20045;-65
2022/04/11 03:14:06;;;;;;;6.53;3.97;;;4.80;99.90;;;;;;5020749;28;20038;-65
2022/04/11 03:16:32;;;;;;;6.05;3.33;;;4.80;99.90;;;;;;5029245;28;20045;-65
2022/04/11 03:18:58;;;;;;;4.97;3.28;;;4.90;99.90;;;;;;5032551;28;20041;-66
2022/04/11 03:21:23;;;;;;;10.25;3.97;;;4.90;99.90;;;;;;5027459;28;20042;-65
2022/04/11 03:23:49;;;;;;;8.27;3.53;;;4.90;99.90;;;;;;5022280;28;20060;-65
2022/04/11 03:26:14;;;;;;;7.88;3.17;;;5.00;99.90;;;;;;5025019;28;20061;-65
2022/04/11 03:28:40;;;;;;;7.15;3.35;;;5.00;99.90;;;;;;5029240;28;20064;-65
2022/04/11 03:31:05;;;;;;;5.85;2.80;;;4.90;99.90;;;;;;5030630;28;20095;-66
2022/04/11 03:33:31;;;;;;;11.10;3.92;;;5.00;99.90;;;;;;5018172;28;20085;-66
2022/04/11 03:35:57;;;;;;;4.82;3.00;;;5.00;99.90;;;;;;5030741;28;20410;-66
2022/04/11 03:38:22;;;;;;;8.50;2.92;;;5.10;99.90;;;;;;5016030;28;20041;-66
2022/04/11 03:40:48;;;;;;;5.93;3.00;;;5.10;99.90;;;;;;5024731;28;20048;-65
2022/04/11 03:43:14;;;;;;;5.15;3.25;;;5.10;99.90;;;;;;5013742;28;20052;-65
2022/04/11 03:45:39;;;;;;;6.57;3.45;;;5.10;99.90;;;;;;5029769;28;20045;-65
2022/04/11 03:48:05;;;;;;;3.60;2.70;;;5.20;99.90;;;;;;5020250;28;20391;-66
2022/04/11 03:50:30;;;;;;;5.80;3.30;;;5.20;99.90;;;;;;5030054;28;20037;-66
2022/04/11 03:52:56;;;;;;;7.25;3.10;;;5.20;99.90;;;;;;5026692;28;20061;-65
2022/04/11 03:55:22;;;;;;;6.95;2.50;;;5.30;99.90;;;;;;5028384;28;20050;-65
2022/04/11 03:57:47;;;;;;;6.93;2.65;;;5.30;99.90;;;;;;5031383;28;20464;-65
2022/04/11 04:00:13;;;;;;;8.23;3.63;;;5.30;99.90;;;;;;5022674;28;20045;-65
2022/04/11 04:02:39;;;;;;;10.98;4.13;;;5.30;99.90;;;;;;5024073;28;20053;-65
2022/04/11 04:05:05;;;;;;;5.55;2.78;;;5.40;99.90;;;;;;5018769;28;20060;-65
2022/04/11 04:07:30;;;;;;;7.43;3.15;;;5.40;99.90;;;;;;5020847;28;20092;-65
2022/04/11 04:09:56;;;;;;;4.90;3.40;;;5.40;99.90;;;;;;5029573;28;20497;-65
2022/04/11 04:12:22;;;;;;;8.82;4.07;;;5.40;99.90;;;;;;5030189;28;20393;-65
2022/04/11 04:14:48;;;;;;;7.72;3.05;;;5.40;99.90;;;;;;5018625;28;20381;-65
2022/04/11 04:17:14;;;;;;;8.02;3.58;;;5.40;99.90;;;;;;5020587;28;20055;-65
2022/04/11 04:19:39;;;;;;;6.57;3.63;;;5.40;99.90;;;;;;5022524;28;20049;-66
2022/04/11 04:22:05;;;;;;;8.52;3.63;;;5.40;99.90;;;;;;5025884;28;20117;-66
2022/04/11 04:24:36;;;;;;;13.75;4.40;;;5.40;99.90;;;;;;5030225;28;20133;-65
2022/04/11 04:27:03;;;;;;;7.10;3.42;;;5.40;99.90;;;;;;5029776;28;20041;-65
2022/04/11 04:29:28;;;;;;;9.23;3.80;;;5.40;99.90;;;;;;5022428;28;20385;-65
2022/04/11 04:31:54;;;;;;;10.40;3.60;;;5.40;99.90;;;;;;5021685;28;20045;-65
2022/04/11 04:34:20;;;;;;;14.45;4.25;;;5.30;99.90;;;;;;5019040;28;20049;-66
2022/04/11 04:36:47;;;;;;;11.77;3.42;;;5.40;99.90;;;;;;5022082;28;20611;-65
2022/04/11 04:39:12;;;;;;;8.75;3.72;;;5.40;99.90;;;;;;5018702;28;20038;-65
2022/04/11 04:41:38;;;;;;;7.10;3.42;;;5.40;99.90;;;;;;5023419;28;20037;-66
2022/04/11 04:44:06;;;;;;;6.18;3.45;;;5.40;99.90;;;;;;5023912;28;20041;-65
2022/04/11 04:46:32;;;;;;;5.18;2.88;;;5.40;99.90;;;;;;5011018;28;20501;-65
2022/04/11 04:48:58;;;;;;;8.18;4.07;;;5.40;99.90;;;;;;5029307;28;20511;-65
2022/04/11 04:51:23;;;;;;;11.05;3.20;;;5.40;99.90;;;;;;5029209;28;20037;-65
2022/04/11 04:53:49;;;;;;;9.07;2.88;;;5.40;99.90;;;;;;5022371;28;20062;-66
2022/04/11 04:56:15;;;;;;;7.78;3.38;;;5.40;99.90;;;;;;5019060;28;20125;-65
2022/04/11 04:58:40;;;;;;;8.70;3.35;;;5.40;99.90;;;;;;5028389;28;20049;-65
2022/04/11 05:01:06;;;;;;;9.27;4.45;;;5.40;99.90;;;;;;5029974;28;20132;-65
2022/04/11 05:03:31;;;;;;;11.85;4.18;;;5.50;99.90;;;;;;5023002;28;20052;-65
2022/04/11 05:05:57;;;;;;;22.27;4.32;;;5.50;99.90;;;;;;5020753;28;20045;-65
2022/04/11 05:08:23;;;;;;;13.65;4.03;;;5.50;99.90;;;;;;5021779;28;20072;-65
2022/04/11 05:10:48;;;;;;;11.60;3.95;;;5.50;99.90;;;;;;5028762;28;20050;-65
2022/04/11 05:13:14;;;;;;;5.07;3.42;;;5.50;99.90;;;;;;5026560;28;20050;-65
2022/04/11 05:15:42;;;;;;;6.57;3.13;;;5.50;99.90;;;;;;5023533;28;20061;-65
2022/04/11 05:18:08;;;;;;;8.18;2.88;;;5.50;99.90;;;;;;5024017;28;20494;-65
2022/04/11 05:20:34;;;;;;;7.35;2.97;;;5.50;99.90;;;;;;5024927;28;20103;-65
2022/04/11 05:22:59;;;;;;;10.13;4.70;;;5.60;99.90;;;;;;5023422;28;20481;-65
2022/04/11 05:25:25;;;;;;;8.20;3.47;;;5.60;99.90;;;;;;5019720;28;20044;-65
2022/04/11 05:27:51;;;;;;;6.68;3.28;;;5.60;99.90;;;;;;5020383;28;20378;-65
2022/04/11 05:30:18;;;;;;;9.35;3.83;;;5.70;99.90;;;;;;5027289;28;20048;-65
2022/04/11 05:32:43;;;;;;;9.50;3.95;;;5.70;99.90;;;;;;5029806;28;20507;-65
2022/04/11 05:35:09;;;;;;;10.95;5.00;;;5.70;99.90;;;;;;5021499;28;20132;-65
2022/04/11 05:37:35;;;;;;;8.98;3.53;;;5.70;99.90;;;;;;5024298;28;20495;-65
2022/04/11 05:40:03;;;;;;;12.70;4.13;;;5.70;99.90;;;;;;5029552;28;20064;-65
2022/04/11 05:42:29;;;;;;;11.88;7.53;;;5.70;99.90;;;;;;5027021;28;20413;-65
2022/04/11 05:44:54;;;;;;;7.97;5.82;;;5.80;99.90;;;;;;5019898;28;20042;-65
2022/04/11 05:47:20;;;;;;;12.95;7.38;;;5.80;99.90;;;;;;5026461;28;20116;-65
2022/04/11 05:49:45;;;;;;;15.98;8.48;;;5.80;99.90;;;;;;5013670;28;20042;-65
2022/04/11 05:52:15;;;;;;;11.00;6.50;;;5.80;99.90;;;;;;5026090;28;20048;-65
2022/04/11 05:54:40;;;;;;;12.25;6.50;;;5.90;99.90;;;;;;5028530;28;20050;-65
2022/04/11 05:57:06;;;;;;;9.82;4.47;;;5.90;99.90;;;;;;5023896;28;20052;-66
2022/04/11 05:59:32;;;;;;;9.40;3.75;;;5.90;99.90;;;;;;5014557;28;20508;-65
2022/04/11 06:01:57;;;;;;;9.65;3.55;;;5.90;99.90;;;;;;5027016;28;20057;-65
2022/04/11 06:04:23;;;;;;;10.52;5.00;;;5.90;99.90;;;;;;5032711;28;20063;-66
2022/04/11 06:06:48;;;;;;;7.18;3.63;;;6.00;99.90;;;;;;5017447;28;20069;-66
2022/04/11 06:09:14;;;;;;;11.00;4.22;;;6.10;99.90;;;;;;5022994;28;20045;-66
2022/04/11 06:11:40;;;;;;;8.85;4.95;;;6.10;99.90;;;;;;5019323;28;20057;-66
2022/04/11 06:14:05;;;;;;;13.43;4.95;;;6.10;99.90;;;;;;5021695;28;20033;-66
2022/04/11 06:16:31;;;;;;;7.05;4.50;;;6.10;99.90;;;;;;5018531;28;20042;-66
2022/04/11 06:18:57;;;;;;;6.05;3.58;;;6.20;99.90;;;;;;5032224;28;20502;-66
2022/04/11 06:21:23;;;;;;;9.15;4.88;;;6.30;99.90;;;;;;5031341;28;20049;-66
2022/04/11 06:23:49;;;;;;;7.35;4.22;;;6.30;99.90;;;;;;5025398;28;20049;-66
2022/04/11 06:26:14;;;;;;;8.70;4.63;;;6.30;99.90;;;;;;5023096;28;20054;-66
2022/04/11 06:28:41;;;;;;;9.50;3.75;;;6.40;99.90;;;;;;5025358;28;20049;-66
2022/04/11 06:31:10;;;;;;;11.90;5.47;;;6.40;99.90;;;;;;5033496;28;20056;-66
2022/04/11 06:33:37;;;;;;;9.73;5.13;;;6.50;99.90;;;;;;5031785;28;20771;-66
2022/04/11 06:36:03;;;;;;;19.67;9.15;;;6.50;99.90;;;;;;5024708;28;20135;-66
2022/04/11 06:38:29;;;;;;;11.00;5.65;;;6.50;99.90;;;;;;5026699;28;20045;-66
2022/04/11 06:40:55;;;;;;;10.00;4.45;;;6.60;99.90;;;;;;5032477;28;20041;-66
2022/04/11 06:43:22;;;;;;;9.55;4.10;;;6.60;99.90;;;;;;5018553;28;20477;-66
2022/04/11 06:45:47;;;;;;;8.10;3.60;;;6.60;99.90;;;;;;5026404;28;20486;-66
2022/04/11 06:48:13;;;;;;;4.95;2.53;;;6.60;99.90;;;;;;5013193;28;20049;-66
2022/04/11 06:50:38;;;;;;;7.82;2.85;;;6.70;99.90;;;;;;5020220;28;20049;-66
2022/04/11 06:53:04;;;;;;;7.47;3.55;;;6.70;99.90;;;;;;5030467;28;20091;-65
2022/04/11 06:55:30;;;;;;;10.32;3.42;;;6.70;99.90;;;;;;5028734;28;20045;-66
2022/04/11 06:57:55;;;;;;;6.57;3.80;;;6.70;99.90;;;;;;5029680;28;20051;-66
2022/04/11 07:00:21;;;;;;;7.35;3.13;;;6.80;99.90;;;;;;5025211;28;20042;-66
2022/04/11 07:02:46;;;;;;;7.70;3.30;;;6.80;99.90;;;;;;5029893;28;20034;-65
2022/04/11 07:05:12;;;;;;;6.05;3.15;;;6.90;99.90;;;;;;5031244;28;20042;-66
2022/04/11 07:07:39;;;;;;;7.90;2.92;;;6.90;99.90;;;;;;5026058;28;20052;-65
2022/04/11 07:10:05;;;;;;;8.20;2.85;;;6.90;99.90;;;;;;5030051;28;20045;-66
2022/04/11 07:12:31;;;;;;;7.82;2.80;;;7.00;99.90;;;;;;5030492;28;20060;-65
2022/04/11 07:15:00;;;;;;;7.75;3.03;;;7.00;99.90;;;;;;5031957;28;20033;-65
2022/04/11 07:17:26;;;;;;;8.88;2.75;;;7.10;99.90;;;;;;5025998;28;20076;-66
2022/04/11 07:19:52;;;;;;;5.45;2.45;;;7.10;99.90;;;;;;5010926;28;20046;-66
2022/04/11 07:22:21;;;;;;;9.88;3.55;;;7.10;99.90;;;;;;5009909;28;20516;-66
2022/04/11 07:24:47;;;;;;;8.52;2.88;;;7.20;99.90;;;;;;5017551;28;20045;-66
2022/04/11 07:27:13;;;;;;;7.55;3.60;;;7.30;99.90;;;;;;5030497;28;20041;-66
2022/04/11 07:29:38;;;;;;;4.78;3.17;;;7.30;99.90;;;;;;5015729;28;20049;-66
2022/04/11 07:32:04;;;;;;;6.07;2.58;;;7.40;99.90;;;;;;5014803;28;20497;-66
2022/04/11 07:34:30;;;;;;;9.13;3.22;;;7.50;99.90;;;;;;5028653;28;20049;-65
2022/04/11 07:36:55;;;;;;;11.05;2.80;;;7.60;99.90;;;;;;5011960;28;20049;-66
2022/04/11 07:39:23;;;;;;;7.18;2.40;;;7.70;99.90;;;;;;5018329;28;20110;-66
2022/04/11 07:41:49;;;;;;;11.10;3.28;;;7.70;99.90;;;;;;5019885;28;20743;-66
2022/04/11 07:44:15;;;;;;;8.63;3.08;;;7.80;99.90;;;;;;5017414;28;20038;-66
2022/04/11 07:46:41;;;;;;;12.77;3.85;;;7.90;99.90;;;;;;5031182;28;20041;-66
2022/04/11 07:49:06;;;;;;;7.22;3.50;;;8.00;99.90;;;;;;5023535;28;20033;-66
2022/04/11 07:51:32;;;;;;;5.55;2.60;;;8.20;99.90;;;;;;5021902;28;20068;-66
2022/04/11 07:53:57;;;;;;;7.45;2.88;;;8.30;99.90;;;;;;4996014;28;1007615;-66
2022/04/11 07:56:23;;;;;;;7.80;2.97;;;8.40;99.90;;;;;;5022662;28;20053;-66
2022/04/11 07:58:49;;;;;;;6.90;3.10;;;8.40;99.90;;;;;;5012715;28;20045;-66
2022/04/11 08:01:16;;;;;;;6.85;2.97;;;8.50;99.90;;;;;;5024440;28;20503;-65
2022/04/11 08:03:44;;;;;;;5.22;2.75;;;8.70;99.90;;;;;;5011808;28;20038;-66
2022/04/11 08:06:09;;;;;;;9.10;3.50;;;8.80;99.90;;;;;;5027451;28;20045;-66
2022/04/11 08:08:35;;;;;;;7.03;2.58;;;8.90;99.90;;;;;;5030008;28;20404;-65
2022/04/11 08:11:01;;;;;;;5.43;3.25;;;8.90;99.90;;;;;;5018735;28;20046;-66
2022/04/11 08:13:27;;;;;;;10.38;3.83;;;9.10;99.90;;;;;;5029641;28;20048;-66
2022/04/11 08:15:52;;;;;;;5.28;2.92;;;9.20;99.90;;;;;;5012884;28;20046;-66
2022/04/11 08:18:18;;;;;;;6.10;2.97;;;9.40;99.90;;;;;;5023530;28;20489;-66
2022/04/11 08:20:43;;;;;;;8.70;2.70;;;9.60;99.90;;;;;;5017944;28;20387;-66
2022/04/11 08:23:09;;;;;;;10.25;2.70;;;9.90;99.90;;;;;;5020506;28;20049;-66
2022/04/11 08:25:34;;;;;;;4.50;2.22;;;10.60;99.90;;;;;;5031025;28;20049;-66
2022/04/11 08:28:00;;;;;;;5.85;2.03;;;11.50;99.90;;;;;;5031043;28;20048;-66
2022/04/11 08:30:26;;;;;;;5.78;2.50;;;12.50;99.90;;;;;;5018152;28;20056;-66
2022/04/11 08:32:52;;;;;;;5.40;1.98;;;13.20;99.90;;;;;;5010947;28;20418;-66
2022/04/11 08:35:22;;;;;;;5.68;2.05;;;13.80;99.90;;;;;;5011390;28;20057;-66
2022/04/11 08:37:48;;;;;;;9.35;1.98;;;14.40;99.90;;;;;;5011281;28;20042;-66
2022/04/11 08:40:16;;;;;;;4.25;1.98;;;14.90;99.90;;;;;;5011366;28;20553;-66
2022/04/11 08:42:44;;;;;;;5.00;1.95;;;15.00;99.90;;;;;;5011090;28;20060;-66
2022/04/11 08:45:13;;;;;;;4.63;1.88;;;15.20;99.90;;;;;;5016021;28;20045;-66
2022/04/11 08:47:39;;;;;;;6.32;1.27;;;15.50;98.60;;;;;;5010511;28;20049;-66
2022/04/11 08:50:06;;;;;;;5.78;1.92;;;15.60;98.20;;;;;;5012459;28;20033;-66
2022/04/11 08:52:34;;;;;;;8.75;1.80;;;15.90;96.50;;;;;;5010266;28;20485;-66
2022/04/11 08:55:01;;;;;;;6.30;1.65;;;16.20;96.60;;;;;;5010754;28;20056;-66
2022/04/11 08:57:27;;;;;;;3.55;1.45;;;16.20;93.50;;;;;;5010584;28;20050;-66
2022/04/11 08:59:53;;;;;;;4.82;1.40;;;16.30;93.40;;;;;;5016806;28;20033;-65
2022/04/11 09:02:18;;;;;;;3.78;1.70;;;16.50;93.20;;;;;;5019779;28;20067;-65
2022/04/11 09:04:51;;;;;;;3.25;1.08;;;16.40;91.70;;;;;;5019879;28;20057;-66
2022/04/11 09:07:17;;;;;;;2.42;1.17;;;16.60;91.50;;;;;;5018825;28;20049;-66
2022/04/11 09:09:43;;;;;;;2.63;1.30;;;16.30;89.40;;;;;;5025861;28;20041;-66
2022/04/11 09:12:16;;;;;;;2.95;1.30;;;16.40;89.00;;;;;;5028824;28;20534;-66
2022/04/11 09:14:43;;;;;;;6.72;2.35;;;16.50;88.60;;;;;;5040898;28;20045;-66
2022/04/11 09:17:09;;;;;;;3.83;1.17;;;16.80;90.00;;;;;;5022963;28;20432;-66
2022/04/11 09:19:35;;;;;;;4.68;1.70;;;17.20;90.70;;;;;;5016587;28;20077;-66
2022/04/11 09:22:02;;;;;;;6.35;1.88;;;17.00;88.00;;;;;;5028001;28;20041;-66
2022/04/11 09:24:29;;;;;;;5.38;1.25;;;17.10;89.20;;;;;;5028855;28;20045;-66
2022/04/11 09:26:55;;;;;;;7.15;1.55;;;17.20;86.80;;;;;;5029806;28;20829;-66
2022/04/11 09:29:26;;;;;;;4.57;1.70;;;17.20;87.80;;;;;;5015779;28;20563;-66
2022/04/11 09:31:51;;;;;;;3.67;1.40;;;17.20;85.00;;;;;;5010960;28;20046;-66
2022/04/11 09:34:22;;;;;;;6.35;1.48;;;17.40;86.10;;;;;;5010257;28;20088;-66
2022/04/11 09:36:54;;;;;;;5.43;1.83;;;17.10;85.40;;;;;;5010451;28;20049;-66
2022/04/11 09:39:22;;;;;;;3.85;2.08;;;16.90;85.90;;;;;;5028794;28;20053;-66
2022/04/11 09:41:49;;;;;;;3.20;1.65;;;16.70;84.70;;;;;;5013678;28;20038;-66
2022/04/11 09:44:22;;;;;;;3.75;2.05;;;16.70;85.90;;;;;;5015785;28;20078;-66
2022/04/11 09:46:49;;;;;;;2.85;1.70;;;17.00;86.20;;;;;;5010679;28;20057;-67
2022/04/11 09:49:16;;;;;;;5.53;2.10;;;17.10;86.50;;;;;;5027922;28;20046;-66
2022/04/11 09:52:01;;;;;;;4.55;1.77;;;17.10;84.30;;;;;;5020518;28;20050;-67
2022/04/11 09:54:28;;;;;;;8.05;1.88;;;17.20;85.50;;;;;;5021809;28;20141;-66
2022/04/11 09:56:54;;;;;;;7.40;2.67;;;17.30;86.90;;;;;;5022517;28;20497;-65
2022/04/11 09:59:23;;;;;;;6.55;2.05;;;17.30;86.30;;;;;;5008063;28;20512;-65
2022/04/11 10:01:51;;;;;;;3.85;2.08;;;17.30;83.60;;;;;;5026518;28;20132;-64
2022/04/11 10:04:21;;;;;;;3.28;1.70;;;17.20;81.00;;;;;;5028437;28;20046;-65
2022/04/11 10:06:47;;;;;;;4.03;1.83;;;17.10;80.20;;;;;;5018321;28;20108;-65
2022/04/11 10:09:14;;;;;;;2.90;1.35;;;17.20;82.70;;;;;;5016285;28;20042;-65
2022/04/11 10:11:44;;;;;;;4.30;2.35;;;17.30;85.20;;;;;;5027126;28;20048;-65
2022/04/11 10:14:10;;;;;;;6.03;3.00;;;17.20;82.10;;;;;;5024712;28;20052;-65
2022/04/11 10:16:43;;;;;;;5.60;2.03;;;17.20;81.30;;;;;;5029312;28;20069;-66
2022/04/11 10:19:11;;;;;;;3.78;1.60;;;17.10;81.00;;;;;;5018015;28;20038;-67
2022/04/11 10:21:41;;;;;;;4.13;1.33;;;16.90;83.20;;;;;;5009671;28;20046;-65
2022/04/11 10:24:34;;;;;;;4.63;1.92;;;16.90;85.30;;;;;;5016585;28;20073;-65
2022/04/11 10:27:20;;;;;;;4.07;1.80;;;17.00;81.00;;;;;;5017116;28;20046;-65
2022/04/11 10:29:49;;;;;;;3.95;1.95;;;16.90;80.90;;;;;;5009517;28;20304;-64
2022/04/11 10:32:19;;;;;;;5.25;1.92;;;16.60;84.70;;;;;;5011928;28;20406;-65
2022/04/11 10:34:47;;;;;;;3.78;1.80;;;16.50;86.30;;;;;;5009272;28;20069;-64
2022/04/11 10:37:13;;;;;;;4.45;2.22;;;16.80;89.00;;;;;;5015658;28;20096;-64
2022/04/11 10:39:39;;;;;;;7.28;2.13;;;16.90;86.40;;;;;;5016680;28;20053;-66
2022/04/11 10:42:09;;;;;;;4.63;1.88;;;16.80;86.90;;;;;;5028494;28;20459;-65
2022/04/11 10:44:45;;;;;;;3.50;1.50;;;16.60;85.00;;;;;;5013488;28;20042;-67
2022/04/11 10:47:11;;;;;;;6.55;2.15;;;16.60;82.90;;;;;;5020939;28;20489;-66
2022/04/11 10:49:48;;;;;;;7.05;2.60;;;16.60;84.20;;;;;;5013371;28;20444;-66
2022/04/11 10:52:31;;;;;;;4.63;1.90;;;16.80;85.40;;;;;;5026669;28;20444;-67
2022/04/11 10:55:18;;;;;;;2.15;1.30;;;16.50;87.00;;;;;;5031166;28;20096;-66
2022/04/11 10:57:48;;;;;;;3.67;1.90;;;16.70;82.90;;;;;;5021168;28;20513;-67
2022/04/11 11:00:33;;;;;;;3.58;1.88;;;16.50;80.70;;;;;;5011864;28;20084;-66
2022/04/11 11:03:02;;;;;;;3.85;2.00;;;16.50;85.00;;;;;;5040688;28;20067;-67
2022/04/11 11:05:30;;;;;;;2.90;1.88;;;16.70;86.70;;;;;;5039289;28;20046;-67
2022/04/11 11:08:11;;;;;;;3.90;2.10;;;16.90;85.80;;;;;;5020691;28;20297;-67
2022/04/11 11:10:42;;;;;;;6.65;2.25;;;16.90;81.80;;;;;;5012580;28;20049;-67
2022/04/11 11:13:40;;;;;;;7.60;2.40;;;17.10;85.30;;;;;;5013424;28;20046;-66
2022/04/11 11:16:10;;;;;;;3.22;1.95;;;17.30;84.30;;;;;;5014263;28;20596;-66
2022/04/11 11:21:15;;;;;;;4.93;1.95;;;17.40;85.40;;;;;;5015675;28;20100;-67
2022/04/11 11:23:41;;;;;;;5.18;2.63;;;17.40;83.00;;;;;;5029080;28;20513;-67
2022/04/11 11:26:15;;;;;;;4.03;2.50;;;17.20;80.90;;;;;;5029247;28;20501;-67
2022/04/11 11:28:42;;;;;;;8.85;2.75;;;17.40;80.30;;;;;;5016586;28;20056;-66
2022/04/11 11:31:07;;;;;;;7.30;3.05;;;17.60;83.20;;;;;;5016527;28;20059;-66
2022/04/11 11:33:33;;;;;;;5.60;2.90;;;17.60;81.10;;;;;;5029954;28;20041;-66
2022/04/11 11:35:59;;;;;;;5.25;2.83;;;17.60;82.00;;;;;;5011656;28;20060;-66
2022/04/11 11:38:27;;;;;;;5.63;2.97;;;17.60;78.20;;;;;;5011377;28;20512;-66
2022/04/11 11:41:00;;;;;;;6.25;2.60;;;17.60;81.60;;;;;;5018147;28;20124;-65
2022/04/11 11:43:28;;;;;;;6.78;2.80;;;17.90;84.50;;;;;;5040507;28;20053;-66
2022/04/11 11:46:11;;;;;;;6.53;3.05;;;18.00;84.40;;;;;;5027550;28;20188;-66
2022/04/11 11:48:40;;;;;;;;;;;18.20;80.40;;;;;;5032485;28;20052;-67
2022/04/11 11:51:06;;;;;;;9.35;4.13;;;18.10;83.70;;;;;;5032079;28;19921;-65
2022/04/11 11:53:43;;;;;;;5.20;3.33;;;18.30;84.30;;;;;;5036487;28;20056;-65
2022/04/11 11:56:09;;;;;;;7.13;3.50;;;18.70;79.00;;;;;;5024997;28;20050;-66
2022/04/11 11:58:39;;;;;;;7.95;3.78;;;18.40;81.10;;;;;;5008822;28;20445;-66
2022/04/11 12:01:09;;;;;;;5.22;3.38;;;18.30;83.30;;;;;;5012351;28;20056;-66
2022/04/11 12:06:26;;;;;;;6.45;3.92;;;18.40;82.70;;;;;;5022258;28;20082;-66
2022/04/11 12:09:01;;;;;;;6.05;3.47;;;18.30;77.30;;;;;;5021424;28;20125;-67
2022/04/11 12:11:29;;;;;;;7.00;3.67;;;18.80;84.60;;;;;;5009541;28;20192;-67
2022/04/11 12:14:00;;;;;;;9.18;5.25;;;18.40;80.80;;;;;;5012174;28;20099;-66
2022/04/11 12:16:26;;;;;;;5.63;3.70;;;18.50;77.50;;;;;;5013907;28;20046;-67
2022/04/11 12:18:53;;;;;;;7.55;3.78;;;18.60;82.00;;;;;;5018286;28;20038;-66
2022/04/11 12:21:35;;;;;;;7.55;3.97;;;18.80;83.00;;;;;;5014687;28;20053;-67
2022/04/11 12:24:06;;;;;;;5.22;3.20;;;18.70;80.90;;;;;;5042554;28;20116;-66
2022/04/11 12:26:36;;;;;;;6.80;3.70;;;18.80;81.40;;;;;;5012717;28;20030;-66
2022/04/11 12:29:10;;;;;;;8.23;3.00;;;18.60;77.70;;;;;;5011756;28;20124;-66
2022/04/11 12:31:37;;;;;;;8.55;3.60;;;18.80;79.90;;;;;;5009149;28;20401;-66
2022/04/11 12:34:13;;;;;;;6.15;3.38;;;18.80;81.80;;;;;;5010998;28;20057;-66
2022/04/11 12:36:58;;;;;;;6.68;4.07;;;19.20;80.40;;;;;;5015297;28;20046;-66
2022/04/11 12:39:25;;;;;;;6.43;4.00;;;19.10;81.30;;;;;;5024679;28;20042;-66
2022/04/11 12:41:51;;;;;;;5.57;3.08;;;18.90;80.10;;;;;;5011506;28;20104;-66
2022/04/11 12:44:31;;;;;;;5.75;3.45;;;19.20;80.50;;;;;;5010135;28;20807;-67
2022/04/11 12:46:57;;;;;;;5.28;2.83;;;18.70;76.90;;;;;;5014585;28;20088;-66
2022/04/11 12:49:23;;;;;;;10.85;2.97;;;18.90;77.30;;;;;;5010716;28;20073;-66
2022/04/11 12:52:03;;;;;;;6.90;2.95;;;19.00;78.50;;;;;;5029411;28;20050;-66
2022/04/11 12:54:39;;;;;;;6.68;3.33;;;19.00;81.30;;;;;;5012778;28;20058;-66
2022/04/11 12:57:06;;;;;;;6.50;3.55;;;19.10;76.30;;;;;;5010247;28;20556;-66
2022/04/11 12:59:37;;;;;;;6.18;3.35;;;19.10;76.40;;;;;;5010211;28;20088;-67